Mega Star 1 — TCMF3 — position and weather

sailwx.info

Track history (hours):
 
Tides and Currents Weather Stations Pressure Air Temp Water Temp Dewpoint Dewpoint Depression Visibility Wind Speed Wind Dir Waves Ship Positions

Mega Star 1

Last reported at 2017-Sep-24 04:59 UTC. Time now 2017-Sep-25 13:40 UTC.
Position N 36°36' E 030°34'.

Length 28 m.

Type: Passenger vessel. MMSI: 271042635.

Date/timePositionNaut miles runAvg speedWind from/ knotsBaromVisibWave heightAir tempDewpointWater temp
2017-Sep-24 04:59N 36°36' E 030°34'0 0.0
2017-Sep-24 04:23N 36°36' E 030°34'0 0.0
2017-Sep-24 03:53N 36°36' E 030°34'0 0.0
2017-Sep-24 03:29N 36°36' E 030°34'0 0.0
2017-Sep-24 02:59N 36°36' E 030°34'0 0.0
2017-Sep-24 02:29N 36°36' E 030°34'0 0.0
2017-Sep-24 01:47N 36°36' E 030°34'0 0.0
2017-Sep-24 01:29N 36°36' E 030°34'0 0.0
2017-Sep-24 00:59N 36°36' E 030°34'0 0.0
2017-Sep-24 00:29N 36°36' E 030°34'0 0.0
2017-Sep-23 23:50N 36°36' E 030°34'0 0.0
2017-Sep-23 23:05N 36°36' E 030°34'0 0.0
2017-Sep-23 22:35N 36°36' E 030°34'0 0.0
2017-Sep-23 19:35N 36°36' E 030°34'0 0.0
2017-Sep-22 02:00N 36°36' E 030°34'0 0.0
2017-Sep-22 01:30N 36°36' E 030°34'0 0.0
2017-Sep-22 00:54N 36°36' E 030°34'0 0.0
2017-Sep-22 00:24N 36°36' E 030°34'0 0.0
2017-Sep-22 00:00N 36°36' E 030°34'0 0.0
2017-Sep-21 23:30N 36°36' E 030°34'0 0.0
2017-Sep-21 23:00N 36°36' E 030°34'0 0.0
2017-Sep-21 22:21N 36°36' E 030°34'0 0.0
2017-Sep-21 21:54N 36°36' E 030°34'0 0.0
2017-Sep-21 21:24N 36°36' E 030°34'0 0.0
2017-Sep-21 21:00N 36°36' E 030°34'0 0.0
2017-Sep-21 20:30N 36°36' E 030°34'0 0.0
2017-Sep-21 20:00N 36°36' E 030°34'0 0.0
2017-Sep-21 19:12N 36°36' E 030°34'0 0.0
2017-Sep-21 18:48N 36°36' E 030°34'0 0.0
2017-Sep-21 18:30N 36°36' E 030°34'0 0.0
2017-Sep-21 17:54N 36°36' E 030°34'0 0.0
2017-Sep-21 17:30N 36°36' E 030°34'0 0.0
2017-Sep-21 13:36N 36°36' E 030°34'0 0.1
2017-Sep-21 13:27N 36°36' E 030°34'0 0.0
2017-Sep-21 13:00N 36°36' E 030°34'0 0.3
2017-Sep-21 12:30N 36°36' E 030°35'3 5.2
2017-Sep-21 11:59N 36°33' E 030°34'2 1.1
2017-Sep-21 10:09N 36°32' E 030°34'0 2.0
2017-Sep-21 09:58N 36°31' E 030°34'1 0.3
2017-Sep-21 07:59N 36°31' E 030°33'5 6.4
2017-Sep-21 07:15N 36°36' E 030°36'1 2.5
2017-Sep-21 06:49N 36°36' E 030°34'0 0.0
2017-Sep-21 06:28N 36°36' E 030°34'0 0.0
2017-Sep-21 05:58N 36°36' E 030°34'0 0.0
2017-Sep-21 05:19N 36°36' E 030°34'0 0.0
2017-Sep-21 04:55N 36°36' E 030°34'0 0.0
2017-Sep-21 04:25N 36°36' E 030°34'0 0.0
2017-Sep-21 03:49N 36°36' E 030°34'0 0.0
2017-Sep-21 01:37N 36°36' E 030°34'0 0.0
2017-Sep-20 23:31N 36°36' E 030°34'0 0.0
2017-Sep-20 23:19N 36°36' E 030°34'0 0.0
2017-Sep-20 22:58N 36°36' E 030°34'0 0.0
2017-Sep-20 22:19N 36°36' E 030°34'0 0.0
2017-Sep-20 21:58N 36°36' E 030°34'0 0.0
2017-Sep-20 21:25N 36°36' E 030°34'0 0.0
2017-Sep-20 20:55N 36°36' E 030°34'0 0.0
2017-Sep-20 20:25N 36°36' E 030°34'0 0.0
2017-Sep-20 19:52N 36°36' E 030°34'0 0.0
2017-Sep-20 19:25N 36°36' E 030°34'  
2017-Sep-14 14:47N 36°36' E 030°34'0 0.0
2017-Sep-14 14:26N 36°36' E 030°34'0 0.0
2017-Sep-14 13:38N 36°36' E 030°34'0 0.0
2017-Sep-14 13:26N 36°36' E 030°34'0 0.3
2017-Sep-14 13:00N 36°36' E 030°34'2 4.7
2017-Sep-14 12:30N 36°34' E 030°35'2 3.5
2017-Sep-14 12:00N 36°32' E 030°34'0 0.8
2017-Sep-14 11:30N 36°32' E 030°34'0 0.3
2017-Sep-14 11:00N 36°32' E 030°34'0 0.0
2017-Sep-14 07:45N 36°32' E 030°34'4 7.8
2017-Sep-14 07:15N 36°36' E 030°36'1 3.6
2017-Sep-14 06:59N 36°36' E 030°35'0 0.3
2017-Sep-14 06:28N 36°36' E 030°34'0 0.0
2017-Sep-14 05:40N 36°36' E 030°34'0 0.0
2017-Sep-14 05:28N 36°36' E 030°34'  
Track history (hours):
 
Tides and Currents Weather Stations Pressure Air Temp Water Temp Dewpoint Dewpoint Depression Visibility Wind Speed Wind Dir Waves Ship Positions

Mega Star 1

Last reported at 2017-Sep-24 04:59 UTC. Time now 2017-Sep-25 13:40 UTC.
Position N 36°36' E 030°34'.

Length 28 m.

Type: Passenger vessel. MMSI: 271042635.

Date/timePositionNaut miles runAvg speedWind from/ knotsBaromVisibWave heightAir tempDewpointWater temp
2017-Sep-24 04:59N 36°36' E 030°34'0 0.0
2017-Sep-24 04:23N 36°36' E 030°34'0 0.0
2017-Sep-24 03:53N 36°36' E 030°34'0 0.0
2017-Sep-24 03:29N 36°36' E 030°34'0 0.0
2017-Sep-24 02:59N 36°36' E 030°34'0 0.0
2017-Sep-24 02:29N 36°36' E 030°34'0 0.0
2017-Sep-24 01:47N 36°36' E 030°34'0 0.0
2017-Sep-24 01:29N 36°36' E 030°34'0 0.0
2017-Sep-24 00:59N 36°36' E 030°34'0 0.0
2017-Sep-24 00:29N 36°36' E 030°34'0 0.0
2017-Sep-23 23:50N 36°36' E 030°34'0 0.0
2017-Sep-23 23:05N 36°36' E 030°34'0 0.0
2017-Sep-23 22:35N 36°36' E 030°34'0 0.0
2017-Sep-23 19:35N 36°36' E 030°34'0 0.0
2017-Sep-22 02:00N 36°36' E 030°34'0 0.0
2017-Sep-22 01:30N 36°36' E 030°34'0 0.0
2017-Sep-22 00:54N 36°36' E 030°34'0 0.0
2017-Sep-22 00:24N 36°36' E 030°34'0 0.0
2017-Sep-22 00:00N 36°36' E 030°34'0 0.0
2017-Sep-21 23:30N 36°36' E 030°34'0 0.0
2017-Sep-21 23:00N 36°36' E 030°34'0 0.0
2017-Sep-21 22:21N 36°36' E 030°34'0 0.0
2017-Sep-21 21:54N 36°36' E 030°34'0 0.0
2017-Sep-21 21:24N 36°36' E 030°34'0 0.0
2017-Sep-21 21:00N 36°36' E 030°34'0 0.0
2017-Sep-21 20:30N 36°36' E 030°34'0 0.0
2017-Sep-21 20:00N 36°36' E 030°34'0 0.0
2017-Sep-21 19:12N 36°36' E 030°34'0 0.0
2017-Sep-21 18:48N 36°36' E 030°34'0 0.0
2017-Sep-21 18:30N 36°36' E 030°34'0 0.0
2017-Sep-21 17:54N 36°36' E 030°34'0 0.0
2017-Sep-21 17:30N 36°36' E 030°34'0 0.0
2017-Sep-21 13:36N 36°36' E 030°34'0 0.1
2017-Sep-21 13:27N 36°36' E 030°34'0 0.0
2017-Sep-21 13:00N 36°36' E 030°34'0 0.3
2017-Sep-21 12:30N 36°36' E 030°35'3 5.2
2017-Sep-21 11:59N 36°33' E 030°34'2 1.1
2017-Sep-21 10:09N 36°32' E 030°34'0 2.0
2017-Sep-21 09:58N 36°31' E 030°34'1 0.3
2017-Sep-21 07:59N 36°31' E 030°33'5 6.4
2017-Sep-21 07:15N 36°36' E 030°36'1 2.5
2017-Sep-21 06:49N 36°36' E 030°34'0 0.0
2017-Sep-21 06:28N 36°36' E 030°34'0 0.0
2017-Sep-21 05:58N 36°36' E 030°34'0 0.0
2017-Sep-21 05:19N 36°36' E 030°34'0 0.0
2017-Sep-21 04:55N 36°36' E 030°34'0 0.0
2017-Sep-21 04:25N 36°36' E 030°34'0 0.0
2017-Sep-21 03:49N 36°36' E 030°34'0 0.0
2017-Sep-21 01:37N 36°36' E 030°34'0 0.0
2017-Sep-20 23:31N 36°36' E 030°34'0 0.0
2017-Sep-20 23:19N 36°36' E 030°34'0 0.0
2017-Sep-20 22:58N 36°36' E 030°34'0 0.0
2017-Sep-20 22:19N 36°36' E 030°34'0 0.0
2017-Sep-20 21:58N 36°36' E 030°34'0 0.0
2017-Sep-20 21:25N 36°36' E 030°34'0 0.0
2017-Sep-20 20:55N 36°36' E 030°34'0 0.0
2017-Sep-20 20:25N 36°36' E 030°34'0 0.0
2017-Sep-20 19:52N 36°36' E 030°34'0 0.0
2017-Sep-20 19:25N 36°36' E 030°34'  
2017-Sep-14 14:47N 36°36' E 030°34'0 0.0
2017-Sep-14 14:26N 36°36' E 030°34'0 0.0
2017-Sep-14 13:38N 36°36' E 030°34'0 0.0
2017-Sep-14 13:26N 36°36' E 030°34'0 0.3
2017-Sep-14 13:00N 36°36' E 030°34'2 4.7
2017-Sep-14 12:30N 36°34' E 030°35'2 3.5
2017-Sep-14 12:00N 36°32' E 030°34'0 0.8
2017-Sep-14 11:30N 36°32' E 030°34'0 0.3
2017-Sep-14 11:00N 36°32' E 030°34'0 0.0
2017-Sep-14 07:45N 36°32' E 030°34'4 7.8
2017-Sep-14 07:15N 36°36' E 030°36'1 3.6
2017-Sep-14 06:59N 36°36' E 030°35'0 0.3
2017-Sep-14 06:28N 36°36' E 030°34'0 0.0
2017-Sep-14 05:40N 36°36' E 030°34'0 0.0
2017-Sep-14 05:28N 36°36' E 030°34'  

Dump ship's entire track history